Hauptseite
METAR-TAF:

METAR-TAF

Flughäfen :

Flughafen Sliač

Banská Bystrica, Slowakei

Breite: 48-38-17N, Länge: 019-08-03E, Höhe: 318 m

Beobachtung

Neuester Wetterbericht von vor 15 Minuten, um 15:30 UTC
Wind 4 kt aus Süd/Südwest, variierte zwischen Süd/Südost und Südwest
Temperatur 19°C
Luftfeuchtigkeit 40%
Luftdruck 1023 hPa
Sichtweite 10 km oder mehr
keine Wolken unter 1500 m und keine Kumulonimbus oder Gewitterwolken

METAR: LZSL 151530Z 20004KT 160V220 CAVOK 19/05 Q1023

Zeit: 17:45 (15:45 UTC)

Prognose

Neuester Wetterbericht von vor 1 Stunde und 45 Minuten, um 14:00 UTC
Gültige Prognose vom 15 um 15 UTC bis 16 um 00 UTC
Wind 8 kt aus Süd/Südost
Sichtweite 10 km oder mehr
keine Wolken unter 1500 m und keine Kumulonimbus oder Gewitterwolken
Übergehend zu
vom 15 um 17 UTC bis 15 um 19 UTC
Wind 3 kt aus Nordost

TAF: LZSL 151400Z 1515/1600 15008KT CAVOK BECMG 1517/1519 05003KT

Wetterbeobachtungen und Prognosen von mehr als 4000 Flughäfen (METAR und TAF Bericht).

Die verfügbaren Stationen werden durch gelbe und rote Markierungen auf der Karte dargestellt.

Führen Sie die Maus auf sie, um den Namen der Station zu sehen.

Darauf klicken, um die Beobachtung von Wetterbeobachtungen und Prognosen zu sehen.

Um die Karte zu ändern : klicken Sie auf den grünen Tasten mit einem schwarzen Kreuz Zum Vergrößern, auf den grünen Button mit einem Gedankenstrich zu verkleinern, oder auf die grünen Pfeile für benachbarte Karten.


METAR-TAF: